createdAt,value
2019-05-03T00:02:43.429Z,97523.27
2019-05-03T00:05:22.736Z,97524.81
2019-05-03T00:07:54.720Z,97534.48
2019-05-03T00:10:24.559Z,97544.06
2019-05-03T00:12:54.189Z,97531.13
2019-05-03T00:15:58.195Z,97529.86
2019-05-03T00:18:28.053Z,97529.36
2019-05-03T00:20:57.576Z,97526.67
2019-05-03T00:23:27.392Z,97528.22
2019-05-03T00:25:57.137Z,97521.48
2019-05-03T00:28:26.842Z,97523.73
2019-05-03T00:30:56.326Z,97526.86
2019-05-03T00:33:26.322Z,97528.12
2019-05-03T00:36:22.429Z,97523.16
2019-05-03T00:38:54.093Z,97526.55
2019-05-03T00:41:23.763Z,97525.34
2019-05-03T00:43:53.606Z,97520.00
2019-05-03T00:46:23.429Z,97517.59
2019-05-03T00:48:53.260Z,97516.22
2019-05-03T00:51:22.849Z,97514.84
2019-05-03T00:53:53.039Z,97512.38
2019-05-03T00:56:23.074Z,97511.16
2019-05-03T00:58:58.659Z,97515.69
2019-05-03T01:01:28.279Z,97524.41
2019-05-03T01:03:58.043Z,97517.48
2019-05-03T01:06:27.952Z,97520.63
2019-05-03T01:08:57.832Z,97521.94
2019-05-03T01:11:27.490Z,97524.25
2019-05-03T01:13:57.146Z,97520.38
2019-05-03T01:16:26.927Z,97520.50
2019-05-03T01:18:56.800Z,97518.89
2019-05-03T01:21:26.514Z,97520.66
2019-05-03T01:23:56.092Z,97521.68
2019-05-03T01:26:25.786Z,97522.30
2019-05-03T01:28:55.550Z,97522.05
2019-05-03T01:31:25.346Z,97520.56
2019-05-03T01:33:54.914Z,97526.70
2019-05-03T01:36:24.544Z,97525.47
2019-05-03T01:38:54.369Z,97521.80
2019-05-03T01:41:24.327Z,97523.42
2019-05-03T01:43:54.054Z,97524.47
2019-05-03T01:46:24.048Z,97516.98
2019-05-03T01:49:15.249Z,97527.72
2019-05-03T01:52:02.262Z,97523.31
2019-05-03T01:54:32.263Z,97526.16
2019-05-03T01:57:02.518Z,97524.41
2019-05-03T01:59:32.569Z,97532.27
2019-05-03T02:02:23.076Z,97527.42
2019-05-03T02:05:23.845Z,97528.52
2019-05-03T02:07:53.632Z,97529.88
2019-05-03T02:10:23.417Z,97536.11
2019-05-03T02:12:53.228Z,97531.03
2019-05-03T02:15:22.975Z,97528.41
2019-05-03T02:17:52.391Z,97530.36
2019-05-03T02:20:22.008Z,97530.92
2019-05-03T02:22:52.282Z,97527.47
2019-05-03T02:25:21.896Z,97530.51
2019-05-03T02:27:52.716Z,97534.12
2019-05-03T02:30:24.974Z,97535.72
2019-05-03T02:32:53.907Z,97533.56
2019-05-03T02:35:23.378Z,97543.83
2019-05-03T02:37:54.500Z,97537.16
2019-05-03T02:40:24.906Z,97541.44
2019-05-03T02:43:10.562Z,97542.80
2019-05-03T02:45:49.863Z,97534.74
2019-05-03T02:48:29.761Z,97543.03
2019-05-03T02:50:59.452Z,97546.20
2019-05-03T02:53:28.870Z,97553.30
2019-05-03T02:56:13.978Z,97554.88
2019-05-03T02:58:29.584Z,97554.10
2019-05-03T03:01:01.208Z,97557.13
2019-05-03T03:03:30.944Z,97556.25
2019-05-03T03:06:01.994Z,97559.88
2019-05-03T03:08:33.632Z,97555.08
2019-05-03T03:11:06.244Z,97564.59
2019-05-03T03:13:37.989Z,97568.73
2019-05-03T03:16:08.941Z,97564.28
2019-05-03T03:18:40.628Z,97563.72
2019-05-03T03:21:16.240Z,97565.52
2019-05-03T03:24:09.705Z,97568.73
2019-05-03T03:26:43.103Z,97570.13
2019-05-03T03:29:16.059Z,97571.57
2019-05-03T03:32:29.090Z,97572.89
2019-05-03T03:35:22.627Z,97573.84
2019-05-03T03:37:55.751Z,97572.80
2019-05-03T03:40:25.647Z,97570.84
2019-05-03T03:42:57.110Z,97567.64
2019-05-03T03:45:27.132Z,97573.16
2019-05-03T03:47:57.441Z,97575.72
2019-05-03T03:50:27.675Z,97570.63
2019-05-03T03:52:59.319Z,97572.55
2019-05-03T03:55:32.094Z,97574.84
2019-05-03T03:58:02.323Z,97580.81
2019-05-03T04:00:32.643Z,97576.45
2019-05-03T04:03:02.544Z,97577.39
2019-05-03T04:05:35.579Z,97583.03
2019-05-03T04:08:05.717Z,97584.13
2019-05-03T04:10:35.928Z,97588.09
2019-05-03T04:13:07.846Z,97587.92
2019-05-03T04:15:56.168Z,97591.44
2019-05-03T04:18:45.670Z,97590.33
2019-05-03T04:21:16.187Z,97592.86
2019-05-03T04:23:46.562Z,97588.48
2019-05-03T04:26:16.720Z,97597.27
2019-05-03T04:28:47.475Z,97600.24
2019-05-03T04:31:17.104Z,97592.97
2019-05-03T04:33:46.624Z,97602.03
2019-05-03T04:36:16.404Z,97597.52
2019-05-03T04:38:46.260Z,97600.88
2019-05-03T04:41:16.117Z,97603.66
2019-05-03T04:43:46.062Z,97604.14
2019-05-03T04:46:25.887Z,97604.36
2019-05-03T04:48:56.181Z,97612.14
2019-05-03T04:51:26.309Z,97619.81
2019-05-03T04:54:16.410Z,97610.98
2019-05-03T04:56:46.523Z,97615.05
2019-05-03T04:59:16.729Z,97616.22
2019-05-03T05:01:46.510Z,97614.27
2019-05-03T05:04:16.334Z,97619.28
2019-05-03T05:06:46.109Z,97611.57
2019-05-03T05:09:15.939Z,97624.30
2019-05-03T05:11:46.123Z,97620.58
2019-05-03T05:14:15.866Z,97625.61
2019-05-03T05:16:46.651Z,97627.94
2019-05-03T05:19:20.158Z,97630.76
2019-05-03T05:21:54.930Z,97643.02
2019-05-03T05:24:25.588Z,97639.50
2019-05-03T05:27:14.701Z,97635.44
2019-05-03T05:29:45.055Z,97644.42
2019-05-03T05:32:14.570Z,97641.08
2019-05-03T05:34:46.051Z,97637.95
2019-05-03T05:37:15.804Z,97641.68
2019-05-03T05:39:45.494Z,97643.11
2019-05-03T05:42:15.018Z,97641.81
2019-05-03T05:44:45.498Z,97633.71
2019-05-03T05:47:37.167Z,97634.30
2019-05-03T05:50:10.475Z,97636.59
2019-05-03T05:52:40.250Z,97630.73
2019-05-03T05:55:20.430Z,97634.45
2019-05-03T05:58:05.244Z,97638.13
2019-05-03T06:00:48.770Z,97633.96
2019-05-03T06:03:18.583Z,97630.94
2019-05-03T06:05:48.164Z,97632.05
2019-05-03T06:08:31.502Z,97624.66
2019-05-03T06:11:25.918Z,97628.98
2019-05-03T06:14:02.579Z,97634.69
2019-05-03T06:16:47.542Z,97638.64
2019-05-03T06:19:25.251Z,97642.77
2019-05-03T06:22:19.978Z,97643.14
2019-05-03T06:24:55.308Z,97639.32
2019-05-03T06:27:32.083Z,97638.94
2019-05-03T06:30:09.026Z,97637.58
2019-05-03T06:32:40.373Z,97631.83
2019-05-03T06:35:10.538Z,97635.27
2019-05-03T06:37:45.687Z,97632.91
2019-05-03T06:40:15.429Z,97632.53
2019-05-03T06:42:52.344Z,97631.91
2019-05-03T06:45:16.882Z,97631.18
2019-05-03T06:47:49.942Z,97633.95
2019-05-03T06:50:19.449Z,97628.64
2019-05-03T06:52:49.848Z,97629.34
2019-05-03T06:55:19.564Z,97631.33
2019-05-03T06:57:49.896Z,97629.22
2019-05-03T07:00:37.683Z,97623.37
2019-05-03T07:03:17.217Z,97625.05
2019-05-03T07:06:04.717Z,97624.27
2019-05-03T07:08:56.458Z,97624.63
2019-05-03T07:11:26.259Z,97627.02
2019-05-03T07:13:55.926Z,97622.52
2019-05-03T07:16:25.551Z,97622.82
2019-05-03T07:18:58.382Z,97629.83
2019-05-03T07:21:26.320Z,97627.41
2019-05-03T07:23:56.158Z,97625.95
2019-05-03T07:26:26.033Z,97627.59
2019-05-03T07:28:55.823Z,97631.27
2019-05-03T07:31:25.698Z,97622.11
2019-05-03T07:33:55.288Z,97623.70
2019-05-03T07:36:28.184Z,97620.38
2019-05-03T07:38:56.240Z,97616.77
2019-05-03T07:41:27.263Z,97617.38
2019-05-03T07:43:57.119Z,97622.98
2019-05-03T07:46:26.928Z,97619.70
2019-05-03T07:48:56.768Z,97617.66
2019-05-03T07:51:26.170Z,97617.91
2019-05-03T07:53:55.797Z,97621.30
2019-05-03T07:56:30.282Z,97619.16
2019-05-03T07:59:04.156Z,97620.12
2019-05-03T08:01:40.215Z,97618.68
2019-05-03T08:04:09.973Z,97619.19
2019-05-03T08:06:39.689Z,97623.89
2019-05-03T08:09:09.982Z,97620.75
2019-05-03T08:11:39.585Z,97618.81
2019-05-03T08:14:09.450Z,97618.46
2019-05-03T08:16:39.019Z,97615.56
2019-05-03T08:19:08.526Z,97615.19
2019-05-03T08:21:38.997Z,97618.20
2019-05-03T08:24:09.077Z,97616.27
2019-05-03T08:26:38.894Z,97620.23
2019-05-03T08:29:16.303Z,97617.91
2019-05-03T08:32:05.100Z,97612.75
2019-05-03T08:34:39.767Z,97611.84
2019-05-03T08:37:31.627Z,97614.75
2019-05-03T08:40:01.422Z,97613.60
2019-05-03T08:42:30.939Z,97605.48
2019-05-03T08:45:00.354Z,97593.53
2019-05-03T08:47:30.009Z,97592.54
2019-05-03T08:49:59.693Z,97591.34
2019-05-03T08:52:29.202Z,97584.17
2019-05-03T08:54:58.833Z,97592.83
2019-05-03T08:57:28.438Z,97595.06
2019-05-03T08:59:57.984Z,97588.28
2019-05-03T09:02:27.787Z,97588.98
2019-05-03T09:04:57.192Z,97596.91
2019-05-03T09:07:26.861Z,97594.91
2019-05-03T09:10:05.520Z,97597.11
2019-05-03T09:12:52.984Z,97595.77
2019-05-03T09:15:24.539Z,97585.37
2019-05-03T09:17:55.272Z,97580.75
2019-05-03T09:20:25.236Z,97581.84
2019-05-03T09:22:55.078Z,97584.56
2019-05-03T09:25:24.899Z,97584.16
2019-05-03T09:27:55.243Z,97573.38
2019-05-03T09:30:25.222Z,97573.69
2019-05-03T09:32:55.715Z,97558.58
2019-05-03T09:35:32.144Z,97570.59
2019-05-03T09:37:56.707Z,97564.20
2019-05-03T09:40:26.502Z,97569.41
2019-05-03T09:42:56.274Z,97575.17
2019-05-03T09:45:25.886Z,97571.05
2019-05-03T09:47:55.769Z,97558.02
2019-05-03T09:50:25.168Z,97556.13
2019-05-03T09:52:55.530Z,97546.47
2019-05-03T09:55:35.352Z,97544.73
2019-05-03T09:58:05.504Z,97539.70
2019-05-03T10:00:35.173Z,97541.47
2019-05-03T10:03:05.697Z,97528.58
2019-05-03T10:05:35.447Z,97530.23
2019-05-03T10:08:05.454Z,97523.36
2019-05-03T10:10:53.294Z,97516.37
2019-05-03T10:13:23.840Z,97514.45
2019-05-03T10:15:54.944Z,97510.72
2019-05-03T10:18:25.442Z,97512.21
2019-05-03T10:20:56.228Z,97499.57
2019-05-03T10:23:39.411Z,97502.97
2019-05-03T10:26:09.300Z,97490.38
2019-05-03T10:28:39.159Z,97488.97
2019-05-03T10:31:08.840Z,97481.23
2019-05-03T10:33:45.830Z,97485.89
2019-05-03T10:36:15.662Z,97481.12
2019-05-03T10:38:45.914Z,97477.08
2019-05-03T10:41:16.068Z,97471.52
2019-05-03T10:43:45.730Z,97463.67
2019-05-03T10:46:15.953Z,97457.94
2019-05-03T10:48:45.771Z,97457.45
2019-05-03T10:51:15.972Z,97462.08
2019-05-03T10:53:48.463Z,97457.53
2019-05-03T10:56:23.145Z,97454.09
2019-05-03T10:59:06.158Z,97453.52
2019-05-03T11:02:07.103Z,97441.34
2019-05-03T11:04:36.963Z,97438.02
2019-05-03T11:07:06.605Z,97441.98
2019-05-03T11:09:48.526Z,97436.70
2019-05-03T11:12:07.880Z,97437.06
2019-05-03T11:14:37.617Z,97440.97
2019-05-03T11:17:07.457Z,97439.58
2019-05-03T11:19:37.195Z,97441.95
2019-05-03T11:22:06.950Z,97433.50
2019-05-03T11:24:36.654Z,97431.52
2019-05-03T11:27:11.195Z,97422.52
2019-05-03T11:29:40.730Z,97428.15
2019-05-03T11:32:16.554Z,97421.75
2019-05-03T11:34:52.592Z,97423.97
2019-05-03T11:37:45.349Z,97425.72
2019-05-03T11:40:15.717Z,97422.00
2019-05-03T11:42:45.570Z,97421.77
2019-05-03T11:45:15.865Z,97402.30
2019-05-03T11:47:45.907Z,97394.58
2019-05-03T11:50:15.970Z,97394.73
2019-05-03T11:52:47.120Z,97392.77
2019-05-03T11:55:16.937Z,97402.60
2019-05-03T11:57:46.660Z,97392.63
2019-05-03T12:00:22.779Z,97394.94
2019-05-03T12:03:02.163Z,97382.55
2019-05-03T12:05:32.119Z,97378.98
2019-05-03T12:08:01.805Z,97385.11
2019-05-03T12:10:48.450Z,97390.44
2019-05-03T12:13:15.915Z,97377.47
2019-05-03T12:15:45.453Z,97375.28
2019-05-03T12:18:16.665Z,97379.03
2019-05-03T12:20:48.058Z,97373.76
2019-05-03T12:23:18.876Z,97369.41
2019-05-03T12:25:49.624Z,97362.76
2019-05-03T12:28:19.971Z,97358.46
2019-05-03T12:30:49.376Z,97355.63
2019-05-03T12:33:18.938Z,97348.41
2019-05-03T12:35:48.644Z,97349.45
2019-05-03T12:38:18.286Z,97346.61
2019-05-03T12:40:47.803Z,97336.02
2019-05-03T12:43:17.680Z,97341.41
2019-05-03T12:45:47.419Z,97333.06
2019-05-03T12:48:17.297Z,97337.20
2019-05-03T12:50:47.600Z,97332.61
2019-05-03T12:53:17.678Z,97331.97
2019-05-03T12:55:47.482Z,97327.34
2019-05-03T12:58:17.319Z,97316.84
2019-05-03T13:01:05.084Z,97308.46
2019-05-03T13:03:38.170Z,97313.52
2019-05-03T13:06:07.840Z,97312.41
2019-05-03T13:08:42.001Z,97309.62
2019-05-03T13:11:11.972Z,97312.63
2019-05-03T13:13:41.381Z,97304.08
2019-05-03T13:16:15.266Z,97296.00
2019-05-03T13:18:45.844Z,97292.03
2019-05-03T13:21:15.637Z,97290.27
2019-05-03T13:23:45.435Z,97288.08
2019-05-03T13:26:15.158Z,97278.28
2019-05-03T13:28:45.689Z,97274.18
2019-05-03T13:31:16.225Z,97261.70
2019-05-03T13:33:45.773Z,97257.64
2019-05-03T13:36:15.633Z,97257.80
2019-05-03T13:38:45.346Z,97252.28
2019-05-03T13:41:14.964Z,97255.77
2019-05-03T13:43:45.438Z,97250.81
2019-05-03T13:46:15.726Z,97247.13
2019-05-03T13:48:48.836Z,97245.23
2019-05-03T13:51:16.541Z,97243.56
2019-05-03T13:53:46.265Z,97241.71
2019-05-03T13:56:16.114Z,97234.45
2019-05-03T13:58:45.739Z,97242.36
2019-05-03T14:01:15.163Z,97236.02
2019-05-03T14:03:45.257Z,97234.36
2019-05-03T14:06:15.196Z,97231.27
2019-05-03T14:08:45.574Z,97223.95
2019-05-03T14:11:15.589Z,97224.44
2019-05-03T14:13:45.668Z,97219.48
2019-05-03T14:16:15.417Z,97220.00
2019-05-03T14:18:47.168Z,97227.64
2019-05-03T14:21:21.821Z,97222.11
2019-05-03T14:24:09.979Z,97226.30
2019-05-03T14:26:40.394Z,97223.30
2019-05-03T14:29:09.817Z,97218.53
2019-05-03T14:31:39.713Z,97218.53
2019-05-03T14:34:09.559Z,97218.23
2019-05-03T14:36:39.098Z,97225.32
2019-05-03T14:39:10.420Z,97208.94
2019-05-03T14:41:39.970Z,97221.31
2019-05-03T14:44:09.493Z,97223.50
2019-05-03T14:46:39.302Z,97224.18
2019-05-03T14:49:09.173Z,97221.79
2019-05-03T14:51:38.739Z,97223.14
2019-05-03T14:54:09.300Z,97220.21
2019-05-03T14:56:47.753Z,97217.84
2019-05-03T14:59:48.667Z,97218.72
2019-05-03T15:02:24.606Z,97215.02
2019-05-03T15:04:54.800Z,97212.50
2019-05-03T15:07:25.530Z,97218.02
2019-05-03T15:09:55.480Z,97212.77
2019-05-03T15:12:25.284Z,97212.03
2019-05-03T15:14:55.058Z,97216.38
2019-05-03T15:17:24.813Z,97218.02
2019-05-03T15:19:54.833Z,97216.75
2019-05-03T15:22:25.329Z,97217.19
2019-05-03T15:24:55.241Z,97220.98
2019-05-03T15:27:25.042Z,97218.01
2019-05-03T15:29:55.565Z,97218.17
2019-05-03T15:32:25.271Z,97213.13
2019-05-03T15:34:55.457Z,97212.89
2019-05-03T15:37:25.566Z,97208.73
2019-05-03T15:39:55.133Z,97205.19
2019-05-03T15:42:25.785Z,97207.16
2019-05-03T15:45:25.105Z,97203.61
2019-05-03T15:48:28.762Z,97209.43
2019-05-03T15:50:58.172Z,97207.09
2019-05-03T15:53:27.855Z,97208.93
2019-05-03T15:55:57.525Z,97206.86
2019-05-03T15:58:27.334Z,97203.78
2019-05-03T16:00:57.075Z,97202.42
2019-05-03T16:03:26.682Z,97200.09
2019-05-03T16:05:56.222Z,97208.39
2019-05-03T16:08:25.755Z,97208.95
2019-05-03T16:10:55.548Z,97205.33
2019-05-03T16:13:25.427Z,97201.19
2019-05-03T16:15:55.472Z,97202.53
2019-05-03T16:18:24.870Z,97199.55
2019-05-03T16:20:54.868Z,97201.31
2019-05-03T16:23:25.133Z,97195.02
2019-05-03T16:25:54.685Z,97194.52
2019-05-03T16:28:34.410Z,97195.80
2019-05-03T16:31:08.186Z,97193.52
2019-05-03T16:33:38.010Z,97187.75
2019-05-03T16:36:07.530Z,97186.58
2019-05-03T16:38:37.393Z,97182.56
2019-05-03T16:41:07.215Z,97187.48
2019-05-03T16:43:37.145Z,97185.34
2019-05-03T16:46:07.207Z,97182.48
2019-05-03T16:48:36.718Z,97181.59
2019-05-03T16:51:06.414Z,97186.70
2019-05-03T16:53:35.928Z,97188.95
2019-05-03T16:56:05.907Z,97190.80
2019-05-03T16:58:35.687Z,97185.53
2019-05-03T17:01:05.495Z,97185.83
2019-05-03T17:03:42.798Z,97181.61
2019-05-03T17:06:26.624Z,97180.20
2019-05-03T17:09:14.553Z,97180.91
2019-05-03T17:11:45.912Z,97183.86
2019-05-03T17:14:15.539Z,97177.50
2019-05-03T17:16:45.126Z,97176.65
2019-05-03T17:19:17.138Z,97181.13
2019-05-03T17:21:46.330Z,97182.03
2019-05-03T17:24:16.486Z,97189.63
2019-05-03T17:26:46.331Z,97186.20
2019-05-03T17:29:16.124Z,97189.14
2019-05-03T17:31:45.909Z,97190.77
2019-05-03T17:34:15.670Z,97184.58
2019-05-03T17:36:45.373Z,97191.26
2019-05-03T17:39:17.225Z,97192.39
2019-05-03T17:42:01.804Z,97182.05
2019-05-03T17:44:37.543Z,97199.13
2019-05-03T17:47:07.297Z,97188.15
2019-05-03T17:49:37.473Z,97190.53
2019-05-03T17:52:26.190Z,97189.00
2019-05-03T17:55:21.424Z,97194.34
2019-05-03T17:58:19.669Z,97196.87
2019-05-03T18:01:23.974Z,97204.69
2019-05-03T18:04:06.118Z,97204.73
2019-05-03T18:06:31.343Z,97219.63
2019-05-03T18:09:16.308Z,97221.63
2019-05-03T18:11:48.440Z,97221.34
2019-05-03T18:14:18.112Z,97227.80
2019-05-03T18:16:47.524Z,97228.30
2019-05-03T18:19:17.355Z,97226.31
2019-05-03T18:21:47.149Z,97235.94
2019-05-03T18:24:16.864Z,97234.65
2019-05-03T18:26:46.711Z,97234.55
2019-05-03T18:29:16.269Z,97237.73
2019-05-03T18:31:46.005Z,97232.30
2019-05-03T18:34:19.712Z,97237.27
2019-05-03T18:36:47.246Z,97238.23
2019-05-03T18:39:18.015Z,97242.51
2019-05-03T18:41:47.916Z,97239.60
2019-05-03T18:44:36.302Z,97247.78
2019-05-03T18:47:08.830Z,97243.53
2019-05-03T18:49:39.750Z,97240.33
2019-05-03T18:52:09.707Z,97240.19
2019-05-03T18:54:39.721Z,97238.64
2019-05-03T18:57:09.289Z,97237.31
2019-05-03T18:59:39.082Z,97237.13
2019-05-03T19:02:10.485Z,97242.44
2019-05-03T19:04:51.814Z,97243.05
2019-05-03T19:07:39.383Z,97247.34
2019-05-03T19:10:30.932Z,97242.72
2019-05-03T19:13:14.833Z,97256.64
2019-05-03T19:15:44.771Z,97254.39
2019-05-03T19:18:27.368Z,97256.75
2019-05-03T19:20:57.501Z,97253.22
2019-05-03T19:23:27.366Z,97248.77
2019-05-03T19:25:57.304Z,97261.50
2019-05-03T19:28:27.247Z,97262.12
2019-05-03T19:30:56.692Z,97266.73
2019-05-03T19:33:26.155Z,97278.91
2019-05-03T19:35:56.079Z,97284.38
2019-05-03T19:38:25.638Z,97288.07
2019-05-03T19:40:55.062Z,97295.83
2019-05-03T19:43:27.033Z,97292.58
2019-05-03T19:45:56.133Z,97291.24
2019-05-03T19:48:25.915Z,97296.58
2019-05-03T19:50:55.702Z,97295.25
2019-05-03T19:53:47.416Z,97295.73
2019-05-03T19:56:18.376Z,97292.41
2019-05-03T19:58:55.251Z,97299.22
2019-05-03T20:01:44.031Z,97294.63
2019-05-03T20:04:41.829Z,97293.70
2019-05-03T20:07:36.665Z,97298.58
2019-05-03T20:10:06.893Z,97295.18
2019-05-03T20:12:36.786Z,97303.80
2019-05-03T20:15:06.945Z,97301.50
2019-05-03T20:17:36.634Z,97291.17
2019-05-03T20:20:06.523Z,97303.69
2019-05-03T20:22:36.299Z,97304.17
2019-05-03T20:25:06.212Z,97310.11
2019-05-03T20:27:36.056Z,97311.45
2019-05-03T20:30:06.947Z,97320.45
2019-05-03T20:32:36.876Z,97329.45
2019-05-03T20:35:14.879Z,97338.23
2019-05-03T20:37:38.907Z,97340.58
2019-05-03T20:40:08.826Z,97339.54
2019-05-03T20:42:54.889Z,97345.56
2019-05-03T20:45:30.138Z,97342.80
2019-05-03T20:48:00.213Z,97351.75
2019-05-03T20:50:29.865Z,97360.59
2019-05-03T20:52:59.381Z,97355.73
2019-05-03T20:55:29.077Z,97355.63
2019-05-03T20:57:58.613Z,97357.78
2019-05-03T21:00:28.412Z,97357.16
2019-05-03T21:02:57.857Z,97346.69
2019-05-03T21:05:31.244Z,97346.66
2019-05-03T21:07:59.026Z,97348.32
2019-05-03T21:10:28.816Z,97351.28
2019-05-03T21:12:58.579Z,97347.71
2019-05-03T21:15:49.932Z,97348.73
2019-05-03T21:18:41.360Z,97349.99
2019-05-03T21:21:24.741Z,97351.67
2019-05-03T21:23:57.319Z,97354.95
2019-05-03T21:26:27.037Z,97354.52
2019-05-03T21:28:56.568Z,97355.03
2019-05-03T21:31:26.092Z,97359.67
2019-05-03T21:33:55.754Z,97356.66
2019-05-03T21:36:25.623Z,97362.24
2019-05-03T21:38:55.357Z,97364.19
2019-05-03T21:41:25.110Z,97369.48
2019-05-03T21:43:54.671Z,97369.00
2019-05-03T21:46:37.304Z,97370.45
2019-05-03T21:49:11.633Z,97372.08
2019-05-03T21:51:41.043Z,97374.52
2019-05-03T21:54:10.573Z,97375.03
2019-05-03T21:56:40.080Z,97373.94
2019-05-03T21:59:09.547Z,97371.55
2019-05-03T22:01:42.746Z,97372.77
2019-05-03T22:04:12.293Z,97372.48
2019-05-03T22:06:41.814Z,97378.77
2019-05-03T22:09:11.429Z,97374.16
2019-05-03T22:11:41.166Z,97379.34
2019-05-03T22:14:17.895Z,97379.06
2019-05-03T22:17:06.544Z,97386.37
2019-05-03T22:19:36.236Z,97374.33
2019-05-03T22:22:25.419Z,97378.46
2019-05-03T22:24:56.806Z,97377.93
2019-05-03T22:27:31.472Z,97367.98
2019-05-03T22:30:00.916Z,97364.59
2019-05-03T22:32:30.658Z,97367.44
2019-05-03T22:35:00.355Z,97369.80
2019-05-03T22:37:30.166Z,97367.81
2019-05-03T22:39:59.661Z,97366.20
2019-05-03T22:42:29.092Z,97364.52
2019-05-03T22:44:58.775Z,97362.09
2019-05-03T22:47:28.477Z,97355.60
2019-05-03T22:49:57.913Z,97356.64
2019-05-03T22:52:27.371Z,97366.55
2019-05-03T22:54:56.832Z,97364.44
2019-05-03T22:57:26.269Z,97365.22
2019-05-03T22:59:56.910Z,97359.27
2019-05-03T23:02:26.622Z,97360.85
2019-05-03T23:04:56.047Z,97361.73
2019-05-03T23:07:25.492Z,97359.66
2019-05-03T23:09:55.234Z,97363.81
2019-05-03T23:12:25.050Z,97360.95
2019-05-03T23:14:55.141Z,97365.34
2019-05-03T23:17:25.362Z,97361.48
2019-05-03T23:20:00.082Z,97362.72
2019-05-03T23:22:31.532Z,97368.20
2019-05-03T23:25:01.246Z,97370.32
2019-05-03T23:27:31.020Z,97361.97
2019-05-03T23:30:00.579Z,97358.77
2019-05-03T23:32:30.196Z,97358.78
2019-05-03T23:34:59.976Z,97357.56
2019-05-03T23:37:29.708Z,97355.00
2019-05-03T23:39:59.619Z,97357.91
2019-05-03T23:42:29.380Z,97356.92
2019-05-03T23:44:59.037Z,97355.48
2019-05-03T23:47:41.882Z,97355.27
2019-05-03T23:50:15.487Z,97357.45
2019-05-03T23:52:45.290Z,97349.44
2019-05-03T23:55:45.980Z,97350.11
2019-05-03T23:58:15.711Z,97352.59
